MacClesfield, North Carolina
Current Conditions -  °F | °C
As of 10:53 AM on Sunday 25 Jan 2015 (Local Time) from KRWI Reporting Station
Clear Clear  
Wind Chill: 48°   Ceiling: Unl
Heat Index: 48°   Visibility: 10mi
Dew Point: 29°   Wind: 0mph
Humidity: 48%   Direction: NA
Pressure: 29.96"   Gusts: NA
Location:  35.75°N, 77.67°W
Report Text: KRWI 251553Z AUTO 00000KT 10SM CLR 09/M02 A2996 RMK AO2 SLP144 T00891017
Loading
Personal Weather Stations






























Interactive Weather Map New forecast layout! Learn more

10-Day Weather Forecast

Advertisements
Track Severe Weather on mobile